Time;durP1;ratioP1;P1;durP2;ratioP2;P2;SDS_P1;SDS_P2;PMS_P1;PMS_P2;Temp;Humidity;BMP_temperature;BMP_pressure;BME280_temperature;BME280_humidity;BME280_pressure;Samples;Min_cycle;Max_cycle;Signal;HPM_P1;HPM_P2
2023/02/21 02:16:07;;;;;;;83.55;45.92;;;9.10;99.90;;;;;;5018754;28;20045;-72
2023/02/21 02:18:56;;;;;;;72.60;41.33;;;9.10;99.90;;;;;;5015075;28;20041;-72
2023/02/21 02:21:26;;;;;;;65.13;37.83;;;9.10;99.90;;;;;;5032896;28;20040;-72
2023/02/21 02:23:57;;;;;;;65.32;37.35;;;9.10;99.90;;;;;;5002279;28;20034;-73
2023/02/21 02:26:43;;;;;;;67.68;36.63;;;9.10;99.90;;;;;;5012169;28;20504;-72
2023/02/21 02:29:39;;;;;;;63.20;37.92;;;9.10;99.90;;;;;;5001393;28;20045;-73
2023/02/21 02:32:26;;;;;;;80.65;43.80;;;9.10;99.90;;;;;;5018899;28;20036;-72
2023/02/21 02:35:02;;;;;;;84.78;45.35;;;9.10;99.90;;;;;;5011187;28;20038;-72
2023/02/21 02:37:43;;;;;;;79.60;45.63;;;9.10;99.90;;;;;;5024350;28;20042;-72
2023/02/21 02:40:21;;;;;;;73.78;41.85;;;9.10;99.90;;;;;;5006871;28;20497;-71
2023/02/21 02:42:57;;;;;;;66.78;37.65;;;9.10;99.90;;;;;;5004537;28;20042;-72
2023/02/21 02:45:47;;;;;;;79.45;43.35;;;9.00;99.90;;;;;;5021928;28;20053;-74
2023/02/21 02:48:20;;;;;;;79.75;43.05;;;9.10;99.90;;;;;;4985738;28;20041;-72
2023/02/21 02:50:49;;;;;;;65.53;37.00;;;9.00;99.90;;;;;;5021019;28;20383;-71
2023/02/21 02:53:21;;;;;;;70.88;38.15;;;9.10;99.90;;;;;;5011162;28;20409;-72
2023/02/21 02:55:54;;;;;;;76.25;39.85;;;9.10;99.90;;;;;;5019868;28;20032;-72
2023/02/21 02:58:23;;;;;;;73.10;39.67;;;9.10;99.90;;;;;;5014905;28;20041;-73
2023/02/21 03:01:16;;;;;;;83.43;42.42;;;9.00;99.90;;;;;;5037902;28;20037;-73
2023/02/21 03:04:26;;;;;;;74.55;39.80;;;9.00;99.90;;;;;;5000413;28;20053;-72
2023/02/21 03:07:14;;;;;;;84.00;43.85;;;9.00;99.90;;;;;;4984341;28;20041;-72
2023/02/21 03:10:33;;;;;;;67.35;36.33;;;9.00;99.90;;;;;;5018394;28;20749;-72
2023/02/21 03:13:09;;;;;;;70.25;36.92;;;9.00;99.90;;;;;;5020975;28;20362;-72
2023/02/21 03:15:50;;;;;;;72.15;37.25;;;9.10;99.90;;;;;;5034892;28;20037;-74
2023/02/21 03:18:46;;;;;;;71.78;37.35;;;9.10;99.90;;;;;;5003418;28;20037;-72
2023/02/21 03:21:21;;;;;;;94.28;45.08;;;9.10;99.90;;;;;;5019195;28;20068;-72
2023/02/21 03:23:51;;;;;;;84.03;42.90;;;9.10;99.90;;;;;;5025153;28;20024;-72
2023/02/21 03:26:18;;;;;;;84.70;40.22;;;9.10;99.90;;;;;;5022478;28;20037;-72
2023/02/21 03:28:49;;;;;;;82.75;39.17;;;9.00;99.90;;;;;;5023886;28;20044;-72
2023/02/21 03:31:23;;;;;;;77.82;37.47;;;9.00;99.90;;;;;;5011611;28;20041;-72
2023/02/21 03:33:49;;;;;;;74.43;37.00;;;9.00;99.90;;;;;;5008340;28;20385;-73
2023/02/21 03:36:16;;;;;;;91.53;41.33;;;9.00;99.90;;;;;;5009286;28;20033;-72
2023/02/21 03:38:42;;;;;;;84.85;40.67;;;9.00;99.90;;;;;;5015663;28;20026;-72
2023/02/21 03:41:09;;;;;;;70.80;35.53;;;9.00;99.90;;;;;;5016927;28;20045;-73
2023/02/21 03:43:38;;;;;;;63.95;31.00;;;9.00;99.90;;;;;;5017138;28;20037;-71
2023/02/21 03:46:04;;;;;;;81.95;41.03;;;9.00;99.90;;;;;;5018627;28;20064;-74
2023/02/21 03:48:31;;;;;;;69.97;36.53;;;9.00;99.90;;;;;;5033315;28;21131;-74
2023/02/21 03:51:00;;;;;;;57.08;31.05;;;9.00;99.90;;;;;;5032452;28;20034;-72
2023/02/21 03:53:31;;;;;;;62.97;33.72;;;9.00;99.90;;;;;;5016911;28;20378;-74
2023/02/21 03:55:58;;;;;;;52.58;27.55;;;9.00;99.90;;;;;;5023112;28;20040;-72
2023/02/21 03:58:34;;;;;;;57.45;30.38;;;9.00;99.90;;;;;;5005601;28;20030;-72
2023/02/21 04:01:00;;;;;;;56.35;32.13;;;9.00;99.90;;;;;;5037937;28;20033;-71
2023/02/21 04:03:26;;;;;;;66.88;34.10;;;9.00;99.90;;;;;;5003411;28;20450;-72
2023/02/21 04:05:57;;;;;;;59.33;32.53;;;8.90;99.90;;;;;;5007006;28;20041;-73
2023/02/21 04:08:23;;;;;;;63.45;33.13;;;8.90;99.90;;;;;;5019789;28;20044;-71
2023/02/21 04:10:50;;;;;;;68.20;35.58;;;8.90;99.90;;;;;;5021663;28;20034;-71
2023/02/21 04:13:18;;;;;;;64.55;35.17;;;8.90;99.90;;;;;;5005901;28;20041;-71
2023/02/21 04:15:45;;;;;;;61.03;32.25;;;9.00;99.90;;;;;;5003981;28;20503;-71
2023/02/21 04:18:12;;;;;;;73.15;37.35;;;8.90;99.90;;;;;;5005928;28;20025;-72
2023/02/21 04:20:39;;;;;;;71.25;36.85;;;8.90;99.90;;;;;;5004938;28;21328;-74
2023/02/21 04:23:10;;;;;;;69.40;36.22;;;8.90;99.90;;;;;;5018927;28;20041;-71
2023/02/21 04:25:37;;;;;;;55.70;29.52;;;8.90;99.90;;;;;;5002613;28;20034;-73
2023/02/21 04:28:09;;;;;;;62.15;34.33;;;8.90;99.90;;;;;;5000655;28;20049;-73
2023/02/21 04:30:36;;;;;;;65.75;34.63;;;8.90;99.90;;;;;;5020254;28;20038;-71
2023/02/21 04:33:03;;;;;;;62.38;34.10;;;8.90;99.90;;;;;;5019926;28;20029;-71
2023/02/21 04:35:29;;;;;;;73.40;36.95;;;8.90;99.90;;;;;;5004800;28;20405;-71
2023/02/21 04:38:00;;;;;;;57.63;30.48;;;8.90;99.90;;;;;;5021251;28;20048;-72
2023/02/21 04:40:26;;;;;;;68.60;34.78;;;8.90;99.90;;;;;;4999110;28;20037;-72
2023/02/21 04:42:53;;;;;;;69.10;35.78;;;8.90;99.90;;;;;;5004323;28;20479;-74
2023/02/21 04:45:19;;;;;;;92.15;43.47;;;8.90;99.90;;;;;;5019861;28;20052;-74
2023/02/21 04:47:45;;;;;;;74.63;37.83;;;8.90;99.90;;;;;;5019930;28;20053;-73
2023/02/21 04:50:12;;;;;;;100.40;46.65;;;8.90;99.90;;;;;;5035934;28;20037;-72
2023/02/21 04:52:39;;;;;;;90.03;41.78;;;8.90;99.90;;;;;;5022335;28;20235;-71
2023/02/21 04:55:07;;;;;;;77.32;39.42;;;8.90;99.90;;;;;;5019395;28;20036;-72
2023/02/21 04:57:33;;;;;;;66.03;34.08;;;8.80;99.90;;;;;;5019924;28;20027;-71
2023/02/21 05:00:00;;;;;;;65.97;33.58;;;8.80;99.90;;;;;;5017289;28;20037;-72
2023/02/21 05:02:27;;;;;;;68.93;34.85;;;8.80;99.90;;;;;;5000045;28;21209;-71
2023/02/21 05:04:53;;;;;;;73.85;38.92;;;8.90;99.90;;;;;;5005719;28;20037;-72
2023/02/21 05:07:19;;;;;;;71.97;39.00;;;8.80;99.90;;;;;;5004657;28;20037;-72
2023/02/21 05:09:45;;;;;;;76.90;36.35;;;8.80;99.90;;;;;;5018339;28;20581;-73
2023/02/21 05:12:12;;;;;;;63.80;31.88;;;8.80;99.90;;;;;;5017655;28;20484;-72
2023/02/21 05:14:39;;;;;;;58.88;30.60;;;8.80;99.90;;;;;;5031344;28;20032;-71
2023/02/21 05:17:06;;;;;;;57.50;29.55;;;8.80;99.90;;;;;;5002529;28;20400;-72
2023/02/21 05:19:33;;;;;;;61.78;30.25;;;8.80;99.90;;;;;;5017770;28;20527;-72
2023/02/21 05:22:01;;;;;;;77.13;37.63;;;8.80;99.90;;;;;;5020051;28;20025;-72
2023/02/21 05:24:28;;;;;;;63.53;32.95;;;8.80;99.90;;;;;;5017452;28;20403;-72
2023/02/21 05:26:56;;;;;;;66.40;32.35;;;8.80;99.90;;;;;;5004458;28;20042;-72
2023/02/21 05:29:23;;;;;;;64.78;29.98;;;8.80;99.90;;;;;;5017908;28;20037;-73
2023/02/21 05:31:49;;;;;;;56.95;29.83;;;8.80;99.90;;;;;;5005674;28;20040;-72
2023/02/21 05:34:18;;;;;;;65.30;30.77;;;8.80;99.90;;;;;;5020919;28;20037;-72
2023/02/21 05:36:45;;;;;;;84.53;38.33;;;8.80;99.90;;;;;;5018616;28;20061;-73
2023/02/21 05:39:11;;;;;;;65.97;32.42;;;8.80;99.90;;;;;;5015143;28;20042;-72
2023/02/21 05:41:37;;;;;;;68.13;33.92;;;8.80;99.90;;;;;;5001156;28;20048;-73
2023/02/21 05:44:04;;;;;;;78.15;36.47;;;8.80;99.90;;;;;;5020246;28;20036;-72
2023/02/21 05:46:33;;;;;;;76.28;38.85;;;8.80;99.90;;;;;;5018526;28;20069;-71
2023/02/21 05:49:02;;;;;;;87.82;39.75;;;8.80;99.90;;;;;;5016857;28;20044;-72
2023/02/21 05:51:37;;;;;;;80.18;37.65;;;8.80;99.90;;;;;;5017515;28;20041;-71
2023/02/21 05:54:05;;;;;;;63.83;31.50;;;8.80;99.90;;;;;;5011226;28;20041;-73
2023/02/21 05:56:38;;;;;;;72.70;34.03;;;8.80;99.90;;;;;;5015957;28;20670;-73
2023/02/21 05:59:04;;;;;;;92.13;41.42;;;8.80;99.90;;;;;;5003737;28;20036;-72
2023/02/21 06:01:31;;;;;;;76.40;38.13;;;8.80;99.90;;;;;;5000595;28;20040;-73
2023/02/21 06:03:57;;;;;;;83.75;37.53;;;8.80;99.90;;;;;;5017715;28;20033;-71
2023/02/21 06:06:23;;;;;;;86.30;39.00;;;8.80;99.90;;;;;;5017327;28;20033;-72
2023/02/21 06:08:50;;;;;;;75.68;35.58;;;8.80;99.90;;;;;;5019928;28;20049;-72
2023/02/21 06:11:23;;;;;;;64.35;29.52;;;8.80;99.90;;;;;;5016448;28;20473;-71
2023/02/21 06:13:51;;;;;;;75.38;35.60;;;8.80;99.90;;;;;;5000175;28;20057;-74
2023/02/21 06:16:17;;;;;;;68.80;34.42;;;8.80;99.90;;;;;;5018628;28;20041;-71
2023/02/21 06:18:43;;;;;;;73.13;35.70;;;8.80;99.90;;;;;;5015817;28;20057;-72
2023/02/21 06:21:10;;;;;;;74.60;36.35;;;8.80;99.90;;;;;;5019324;28;20037;-72
2023/02/21 06:23:36;;;;;;;77.35;34.95;;;8.80;99.90;;;;;;5002608;28;20041;-72
2023/02/21 06:26:03;;;;;;;72.80;35.25;;;8.80;99.90;;;;;;5019095;28;20065;-71
2023/02/21 06:28:30;;;;;;;67.63;30.88;;;8.80;99.90;;;;;;5018103;28;20440;-72
2023/02/21 06:30:56;;;;;;;81.25;36.45;;;8.80;99.90;;;;;;5001726;28;20034;-71
2023/02/21 06:33:23;;;;;;;70.75;34.38;;;8.80;99.90;;;;;;5003080;28;20029;-74
2023/02/21 06:35:49;;;;;;;73.10;35.63;;;8.80;99.90;;;;;;5021859;28;20026;-72
2023/02/21 06:38:15;;;;;;;79.32;33.92;;;8.80;99.90;;;;;;5035572;28;20391;-72
2023/02/21 06:40:43;;;;;;;75.00;33.92;;;8.80;99.90;;;;;;5020167;28;20036;-72
2023/02/21 06:43:09;;;;;;;85.30;36.03;;;8.80;99.90;;;;;;5000558;28;20524;-72
2023/02/21 06:45:35;;;;;;;92.00;38.63;;;8.80;99.90;;;;;;5022540;28;20049;-71
2023/02/21 06:48:01;;;;;;;83.35;37.75;;;8.80;99.90;;;;;;5019384;28;20040;-72
2023/02/21 06:50:28;;;;;;;75.32;33.95;;;8.80;99.90;;;;;;5017540;28;20041;-71
2023/02/21 06:52:54;;;;;;;68.88;31.80;;;8.80;99.90;;;;;;5017580;28;20033;-72
2023/02/21 06:55:21;;;;;;;75.90;35.85;;;8.80;99.90;;;;;;5022709;28;20392;-72
2023/02/21 06:57:48;;;;;;;69.15;31.80;;;8.80;99.90;;;;;;5002346;28;20060;-71
2023/02/21 07:00:16;;;;;;;71.55;32.30;;;8.80;99.90;;;;;;5004771;28;20052;-72
2023/02/21 07:02:43;;;;;;;83.43;39.05;;;8.80;99.90;;;;;;5020401;28;20040;-72
2023/02/21 07:05:09;;;;;;;76.20;34.17;;;8.80;99.90;;;;;;5018855;28;20040;-72
2023/02/21 07:07:36;;;;;;;77.15;33.40;;;8.80;99.90;;;;;;5015680;28;20029;-72
2023/02/21 07:10:02;;;;;;;73.53;33.08;;;8.80;99.90;;;;;;5020522;28;20053;-73
2023/02/21 07:12:29;;;;;;;72.22;32.15;;;8.80;99.90;;;;;;5023642;28;20403;-72
2023/02/21 07:14:55;;;;;;;79.25;34.05;;;8.80;99.90;;;;;;5020912;28;20029;-71
2023/02/21 07:17:21;;;;;;;62.35;26.63;;;8.80;99.90;;;;;;5020946;28;20060;-71
2023/02/21 07:19:48;;;;;;;65.05;30.45;;;8.90;99.90;;;;;;5019349;28;20046;-72
2023/02/21 07:22:14;;;;;;;86.18;36.53;;;8.90;99.90;;;;;;5018353;28;20120;-72
2023/02/21 07:24:40;;;;;;;128.68;43.03;;;8.90;99.90;;;;;;5003492;28;20065;-72
2023/02/21 07:27:06;;;;;;;86.43;38.05;;;8.90;99.90;;;;;;4985832;28;20044;-73
2023/02/21 07:29:33;;;;;;;135.73;47.75;;;8.90;99.90;;;;;;5017388;28;20072;-73
2023/02/21 07:31:59;;;;;;;103.30;40.10;;;8.90;99.90;;;;;;5006734;28;20037;-71
2023/02/21 07:34:26;;;;;;;111.65;42.35;;;8.90;99.90;;;;;;5019486;28;20041;-71
2023/02/21 07:36:52;;;;;;;91.45;38.38;;;8.90;99.90;;;;;;5017022;28;20041;-72
2023/02/21 07:39:18;;;;;;;80.15;33.63;;;8.90;99.90;;;;;;5012365;28;21126;-72
2023/02/21 07:41:45;;;;;;;77.30;31.80;;;8.90;99.90;;;;;;5018819;28;20044;-74
2023/02/21 07:44:21;;;;;;;77.20;31.73;;;8.90;99.90;;;;;;5028717;28;20025;-71
2023/02/21 07:46:47;;;;;;;81.28;32.17;;;8.90;99.90;;;;;;5019110;28;20057;-71
2023/02/21 07:49:14;;;;;;;90.72;38.05;;;8.90;99.90;;;;;;5019135;28;20380;-73
2023/02/21 07:51:40;;;;;;;79.13;34.03;;;8.90;99.90;;;;;;5002171;28;20030;-72
2023/02/21 07:54:06;;;;;;;79.55;33.88;;;8.90;99.90;;;;;;5019658;28;20048;-71
2023/02/21 07:56:33;;;;;;;88.43;35.85;;;8.90;99.90;;;;;;5018756;28;20041;-72
2023/02/21 07:58:59;;;;;;;81.03;33.92;;;8.90;99.90;;;;;;5014421;28;20620;-72
2023/02/21 08:01:26;;;;;;;81.43;30.48;;;8.90;99.90;;;;;;5018535;28;20477;-71
2023/02/21 08:03:52;;;;;;;92.28;34.88;;;9.00;99.90;;;;;;5017185;28;20038;-72
2023/02/21 08:06:19;;;;;;;91.05;35.53;;;9.00;99.90;;;;;;5017201;28;20034;-73
2023/02/21 08:08:45;;;;;;;74.15;29.48;;;9.00;99.90;;;;;;5019067;28;20056;-73
2023/02/21 08:11:11;;;;;;;71.68;31.77;;;9.00;99.90;;;;;;5015738;28;20037;-73
2023/02/21 08:13:38;;;;;;;94.80;36.90;;;9.00;99.90;;;;;;5017697;28;20516;-71
2023/02/21 08:16:04;;;;;;;104.68;38.30;;;9.00;99.90;;;;;;5018093;28;20048;-71
2023/02/21 08:18:30;;;;;;;105.93;37.28;;;9.00;99.90;;;;;;5011436;28;20041;-73
2023/02/21 08:20:57;;;;;;;132.82;42.33;;;9.10;99.90;;;;;;5021063;28;20492;-73
2023/02/21 08:23:23;;;;;;;99.18;39.35;;;9.00;99.90;;;;;;4999299;28;20038;-71
2023/02/21 08:25:50;;;;;;;117.57;40.70;;;9.00;99.90;;;;;;5003736;28;20045;-71
2023/02/21 08:28:16;;;;;;;82.60;34.60;;;9.00;99.90;;;;;;5017019;28;20579;-73
2023/02/21 08:30:43;;;;;;;93.78;36.38;;;9.00;99.90;;;;;;5020940;28;20056;-73
2023/02/21 08:33:09;;;;;;;111.25;38.90;;;9.00;99.90;;;;;;5004588;28;20521;-74
2023/02/21 08:35:36;;;;;;;84.03;35.58;;;9.00;99.90;;;;;;5016826;28;20034;-71
2023/02/21 08:38:02;;;;;;;99.22;34.83;;;9.00;99.90;;;;;;5020480;28;20040;-70
2023/02/21 08:40:30;;;;;;;70.65;30.63;;;9.00;99.90;;;;;;5020568;28;20033;-72
2023/02/21 08:42:58;;;;;;;88.53;33.75;;;9.10;99.90;;;;;;5013711;28;20037;-73
2023/02/21 08:45:26;;;;;;;77.60;32.53;;;9.10;99.90;;;;;;5019452;28;20052;-71
2023/02/21 08:47:53;;;;;;;70.38;29.67;;;9.10;99.90;;;;;;5020019;28;20033;-72
2023/02/21 08:50:21;;;;;;;83.35;34.75;;;9.10;99.90;;;;;;5017787;28;20504;-73
2023/02/21 08:52:48;;;;;;;69.35;30.10;;;9.10;99.90;;;;;;5001600;28;20033;-73
2023/02/21 08:55:16;;;;;;;89.43;33.95;;;9.10;99.90;;;;;;5019926;28;20029;-70
2023/02/21 08:57:42;;;;;;;79.43;33.17;;;9.10;99.90;;;;;;5018311;28;20041;-72
2023/02/21 09:00:11;;;;;;;83.55;34.50;;;9.10;99.90;;;;;;5018269;28;20040;-70
2023/02/21 09:02:41;;;;;;;78.93;32.20;;;9.10;99.90;;;;;;5021741;28;20037;-70
2023/02/21 09:05:13;;;;;;;73.72;30.08;;;9.10;99.90;;;;;;5001731;28;20590;-73
2023/02/21 09:07:39;;;;;;;67.78;26.92;;;9.20;99.90;;;;;;5003308;28;20033;-70
2023/02/21 09:10:08;;;;;;;69.05;29.25;;;9.20;99.90;;;;;;5018472;28;20038;-71
2023/02/21 09:12:36;;;;;;;90.28;34.15;;;9.30;99.90;;;;;;5001440;28;20037;-69
2023/02/21 09:15:03;;;;;;;78.03;32.00;;;9.30;99.90;;;;;;5002503;28;20791;-71
2023/02/21 09:17:32;;;;;;;65.43;28.20;;;9.30;99.90;;;;;;5001565;28;20036;-70
2023/02/21 09:20:05;;;;;;;76.60;30.25;;;9.30;99.90;;;;;;5018623;28;20025;-70
2023/02/21 09:22:32;;;;;;;66.45;28.00;;;9.30;99.90;;;;;;5018373;28;20272;-70
2023/02/21 09:25:00;;;;;;;67.45;28.67;;;9.40;99.90;;;;;;5001293;28;20570;-70
2023/02/21 09:27:35;;;;;;;74.35;31.45;;;9.40;99.90;;;;;;5021984;28;20029;-69
2023/02/21 09:30:10;;;;;;;67.25;30.88;;;9.40;99.90;;;;;;5000671;28;20033;-70
2023/02/21 09:32:38;;;;;;;76.75;32.33;;;9.40;99.90;;;;;;5001766;28;20048;-70
2023/02/21 09:35:05;;;;;;;54.63;24.55;;;9.40;99.90;;;;;;5033390;28;20041;-69
2023/02/21 09:37:31;;;;;;;58.50;25.35;;;9.40;99.90;;;;;;5019282;28;20029;-71
2023/02/21 09:39:59;;;;;;;60.22;26.63;;;9.40;99.90;;;;;;5016265;28;20036;-69
2023/02/21 09:42:29;;;;;;;65.55;26.95;;;9.40;99.90;;;;;;5032628;28;20040;-70
2023/02/21 09:44:55;;;;;;;63.20;26.88;;;9.40;99.90;;;;;;5018200;28;20044;-71
2023/02/21 09:47:29;;;;;;;67.38;27.98;;;9.40;99.90;;;;;;4987126;28;20033;-70
2023/02/21 09:50:01;;;;;;;66.43;27.15;;;9.40;99.90;;;;;;5002027;28;20048;-70
2023/02/21 09:52:34;;;;;;;52.58;23.92;;;9.40;99.90;;;;;;5017735;28;20025;-69
2023/02/21 09:55:24;;;;;;;58.88;27.52;;;9.40;99.90;;;;;;5036076;28;20994;-70
2023/02/21 09:57:50;;;;;;;52.65;23.30;;;9.50;99.90;;;;;;4998810;28;20392;-70
2023/02/21 10:00:19;;;;;;;46.63;20.88;;;9.50;99.90;;;;;;5022674;28;20034;-71
2023/02/21 10:03:33;;;;;;;46.53;21.65;;;9.50;99.90;;;;;;5016834;28;20052;-69
2023/02/21 10:06:24;;;;;;;48.72;22.95;;;9.50;99.90;;;;;;4990163;28;20045;-69
2023/02/21 10:08:56;;;;;;;58.83;27.35;;;9.50;99.90;;;;;;5017425;28;20038;-70
2023/02/21 10:11:38;;;;;;;65.95;29.52;;;9.50;99.90;;;;;;5000191;28;20055;-70
2023/02/21 10:14:22;;;;;;;61.90;26.20;;;9.50;99.90;;;;;;5016701;28;20041;-70
2023/02/21 10:16:55;;;;;;;68.82;29.52;;;9.40;99.90;;;;;;5008499;28;20508;-70
2023/02/21 10:19:42;;;;;;;61.42;27.35;;;9.40;99.90;;;;;;5002058;28;20364;-71
2023/02/21 10:22:19;;;;;;;65.10;29.70;;;9.50;99.90;;;;;;5017445;28;20044;-70
2023/02/21 10:24:46;;;;;;;70.63;30.52;;;9.50;99.90;;;;;;5034110;28;20045;-70
2023/02/21 10:27:26;;;;;;;65.10;30.33;;;9.50;99.90;;;;;;5019512;28;20038;-70
2023/02/21 10:30:05;;;;;;;54.60;24.20;;;9.60;99.90;;;;;;5020412;28;20544;-70
2023/02/21 10:32:32;;;;;;;54.03;24.42;;;9.60;99.90;;;;;;5020067;28;20508;-70
2023/02/21 10:34:58;;;;;;;45.95;21.58;;;9.60;99.90;;;;;;5024077;28;20038;-72
2023/02/21 10:37:56;;;;;;;52.50;23.02;;;9.70;99.90;;;;;;5021807;28;20048;-69
2023/02/21 10:40:34;;;;;;;56.80;25.92;;;9.70;99.90;;;;;;5021615;28;20037;-69
2023/02/21 10:43:18;;;;;;;60.15;26.65;;;9.70;99.90;;;;;;5021568;28;20040;-69
2023/02/21 10:46:05;;;;;;;45.55;22.77;;;9.70;99.90;;;;;;5004595;28;20041;-69
2023/02/21 10:48:35;;;;;;;49.45;22.88;;;9.70;99.90;;;;;;5018992;28;20587;-69
2023/02/21 10:51:12;;;;;;;60.63;29.35;;;9.70;99.90;;;;;;5004448;28;20037;-69
2023/02/21 10:53:42;;;;;;;61.83;26.27;;;9.70;99.90;;;;;;5021986;28;20064;-70
2023/02/21 10:56:14;;;;;;;59.88;27.33;;;9.70;99.90;;;;;;5019745;28;20065;-69
2023/02/21 10:59:05;;;;;;;73.43;31.45;;;9.70;99.90;;;;;;5035918;28;20041;-70
2023/02/21 11:01:42;;;;;;;62.75;27.38;;;9.80;99.90;;;;;;5020626;28;20484;-70
2023/02/21 11:04:24;;;;;;;57.20;25.95;;;9.70;99.90;;;;;;5020573;28;20037;-69
2023/02/21 11:07:14;;;;;;;51.42;23.67;;;9.80;99.90;;;;;;5004943;28;20036;-70
2023/02/21 11:09:48;;;;;;;59.58;27.42;;;9.70;99.90;;;;;;5015314;28;20045;-72
2023/02/21 11:12:14;;;;;;;56.17;26.77;;;9.80;99.90;;;;;;5029463;28;20491;-70
2023/02/21 11:15:02;;;;;;;63.83;28.75;;;9.70;99.90;;;;;;5021160;28;20409;-70
2023/02/21 11:17:31;;;;;;;58.17;26.10;;;9.80;99.90;;;;;;5021433;28;20665;-69
2023/02/21 11:20:16;;;;;;;65.90;29.42;;;9.80;99.90;;;;;;5000903;28;20049;-69
2023/02/21 11:22:46;;;;;;;59.88;28.33;;;9.80;99.90;;;;;;5020656;28;20029;-70
2023/02/21 11:25:25;;;;;;;61.03;29.38;;;9.80;99.90;;;;;;5020979;28;20392;-69
2023/02/21 11:28:01;;;;;;;62.28;30.13;;;9.80;99.90;;;;;;5015000;28;20559;-69
2023/02/21 11:30:31;;;;;;;73.85;33.08;;;9.80;99.90;;;;;;5017159;28;20045;-69
2023/02/21 11:33:00;;;;;;;51.75;24.17;;;9.80;99.90;;;;;;5017402;28;20034;-69
2023/02/21 11:35:47;;;;;;;57.15;28.38;;;9.80;99.90;;;;;;5021248;28;20476;-68
2023/02/21 11:38:37;;;;;;;70.10;28.92;;;9.80;99.90;;;;;;5015721;28;20044;-69
2023/02/21 11:41:16;;;;;;;48.15;21.83;;;9.80;99.90;;;;;;5020844;28;20037;-72
2023/02/21 11:43:47;;;;;;;51.30;23.88;;;9.80;99.90;;;;;;5017734;28;20025;-70
2023/02/21 11:46:28;;;;;;;52.90;22.92;;;9.80;99.90;;;;;;5017517;28;20064;-71
2023/02/21 11:49:00;;;;;;;44.63;21.95;;;9.80;99.90;;;;;;5000430;28;20037;-70
2023/02/21 11:51:42;;;;;;;46.45;22.50;;;9.80;99.90;;;;;;5016872;28;20052;-69
2023/02/21 11:54:09;;;;;;;41.97;19.38;;;9.80;99.90;;;;;;5018652;28;20388;-69
2023/02/21 11:57:17;;;;;;;38.78;19.13;;;9.80;99.90;;;;;;5005371;28;20030;-69
2023/02/21 12:00:06;;;;;;;41.53;19.10;;;9.80;99.90;;;;;;5016147;28;20041;-68
2023/02/21 12:02:39;;;;;;;35.17;17.80;;;9.80;99.90;;;;;;5018264;28;20401;-69
2023/02/21 12:05:26;;;;;;;40.60;18.40;;;9.90;99.90;;;;;;5023107;28;20037;-70
2023/02/21 12:08:13;;;;;;;47.72;21.38;;;9.90;99.90;;;;;;5020379;28;20404;-69
2023/02/21 12:10:47;;;;;;;43.22;20.45;;;9.90;99.90;;;;;;5018065;28;20519;-69
2023/02/21 12:13:35;;;;;;;35.72;17.15;;;9.90;99.90;;;;;;5033385;28;20702;-69
2023/02/21 12:16:29;;;;;;;38.83;18.13;;;10.00;99.90;;;;;;5024022;28;20037;-69
2023/02/21 12:19:14;;;;;;;36.28;17.73;;;10.00;99.90;;;;;;5012420;28;20054;-69
2023/02/21 12:21:59;;;;;;;29.75;15.15;;;10.00;99.90;;;;;;5016028;28;20042;-71
2023/02/21 12:25:00;;;;;;;33.17;15.93;;;10.00;99.90;;;;;;5033558;28;20037;-68
2023/02/21 12:27:42;;;;;;;29.17;14.85;;;10.00;99.90;;;;;;5001424;28;21231;-69
2023/02/21 12:30:42;;;;;;;27.75;13.55;;;10.00;99.90;;;;;;5033429;28;20064;-69
2023/02/21 12:33:15;;;;;;;28.85;15.13;;;10.00;99.90;;;;;;5018499;28;20036;-69
2023/02/21 12:35:47;;;;;;;21.42;11.57;;;9.90;99.90;;;;;;5005937;28;20472;-69
2023/02/21 12:38:20;;;;;;;;;;;9.90;99.90;;;;;;5004459;28;20037;-68
2023/02/21 12:41:01;;;;;;;23.75;11.50;;;9.90;99.90;;;;;;5002710;28;19917;-68
2023/02/21 12:43:42;;;;;;;17.63;9.93;;;9.90;99.90;;;;;;5017078;28;20042;-68
2023/02/21 12:46:26;;;;;;;21.92;10.20;;;9.90;99.90;;;;;;5019329;28;20060;-69
2023/02/21 12:49:20;;;;;;;18.98;9.68;;;10.00;99.90;;;;;;5018222;28;20049;-69
2023/02/21 12:51:59;;;;;;;20.55;10.18;;;9.90;99.90;;;;;;5012815;28;20049;-69
2023/02/21 12:54:47;;;;;;;15.23;8.18;;;9.90;99.90;;;;;;5021322;28;20576;-68
2023/02/21 12:57:18;;;;;;;18.77;9.32;;;9.90;99.90;;;;;;5022894;28;20041;-68
2023/02/21 13:00:18;;;;;;;18.13;9.85;;;9.90;99.90;;;;;;5022246;28;20759;-69
2023/02/21 13:03:03;;;;;;;15.68;7.55;;;9.90;99.90;;;;;;5029180;28;20049;-69
2023/02/21 13:05:42;;;;;;;15.45;8.55;;;9.90;99.90;;;;;;5029225;28;20033;-68
2023/02/21 13:08:37;;;;;;;14.77;7.82;;;9.90;99.90;;;;;;5000316;28;20044;-69
2023/02/21 13:11:12;;;;;;;12.65;7.40;;;9.90;99.90;;;;;;5020705;28;20039;-69
2023/02/21 13:13:39;;;;;;;19.00;9.30;;;9.90;99.90;;;;;;5019212;28;22379;-68
2023/02/21 13:16:11;;;;;;;17.05;8.95;;;9.90;99.90;;;;;;5005147;28;20042;-68
2023/02/21 13:18:39;;;;;;;;;;;9.90;99.90;;;;;;5019649;28;20048;-68
2023/02/21 13:21:48;;;;;;;15.55;8.02;;;9.90;99.90;;;;;;5028068;28;19913;-71
2023/02/21 13:24:29;;;;;;;18.05;8.95;;;10.00;99.90;;;;;;5016032;28;20052;-70
2023/02/21 13:27:25;;;;;;;13.77;7.28;;;10.00;99.90;;;;;;5001458;28;20029;-71
2023/02/21 13:29:57;;;;;;;16.50;8.88;;;10.00;99.90;;;;;;4984249;28;20051;-71
2023/02/21 13:32:24;;;;;;;26.67;12.13;;;10.00;99.90;;;;;;5021168;28;20033;-69
2023/02/21 13:35:02;;;;;;;18.10;10.10;;;10.00;99.90;;;;;;5013423;28;20029;-69
2023/02/21 13:37:30;;;;;;;18.52;9.73;;;10.00;99.90;;;;;;5018669;28;20041;-70
2023/02/21 13:40:15;;;;;;;17.13;9.40;;;10.10;99.90;;;;;;5016858;28;20491;-68
2023/02/21 13:42:42;;;;;;;18.15;9.57;;;10.00;99.90;;;;;;5015744;28;20037;-68
2023/02/21 13:45:11;;;;;;;21.45;11.10;;;10.10;99.90;;;;;;5018062;28;20033;-68
2023/02/21 13:47:55;;;;;;;17.67;8.55;;;10.10;99.90;;;;;;5030914;28;20052;-68
2023/02/21 13:50:37;;;;;;;16.65;9.35;;;10.10;99.90;;;;;;5018904;28;20034;-69
2023/02/21 13:53:31;;;;;;;20.92;10.05;;;10.10;99.90;;;;;;5021081;28;20033;-68
2023/02/21 13:56:06;;;;;;;22.20;10.85;;;10.10;99.90;;;;;;5001392;28;20079;-71
2023/02/21 13:58:44;;;;;;;20.65;10.45;;;10.00;99.90;;;;;;5016171;28;20519;-69
2023/02/21 14:01:43;;;;;;;22.27;11.02;;;10.00;99.90;;;;;;5020956;28;20037;-68
2023/02/21 14:04:47;;;;;;;20.42;10.73;;;10.10;99.90;;;;;;5020196;28;20049;-69
2023/02/21 14:07:13;;;;;;;21.25;11.27;;;10.10;99.90;;;;;;5036327;28;20029;-68
2023/02/21 14:09:41;;;;;;;20.35;9.27;;;10.10;99.90;;;;;;5018380;28;20037;-71
2023/02/21 14:12:11;;;;;;;20.15;10.15;;;10.10;99.90;;;;;;5024640;28;20042;-69
2023/02/21 14:14:38;;;;;;;23.42;12.10;;;10.10;99.90;;;;;;5022250;28;20029;-69
2023/02/21 14:17:09;;;;;;;21.60;11.75;;;10.10;99.90;;;;;;5023183;28;20037;-70
2023/02/21 14:19:49;;;;;;;18.10;10.00;;;10.10;99.90;;;;;;5017343;28;20029;-69
2023/02/21 14:22:22;;;;;;;20.90;10.73;;;10.10;99.90;;;;;;5003667;28;20059;-69
2023/02/21 14:24:54;;;;;;;21.67;11.20;;;10.00;99.90;;;;;;5018844;28;20033;-69
2023/02/21 14:27:20;;;;;;;17.45;10.07;;;10.00;99.90;;;;;;5022656;28;20507;-71
2023/02/21 14:30:11;;;;;;;18.80;10.85;;;10.00;99.90;;;;;;5022195;28;20041;-69
2023/02/21 14:32:42;;;;;;;24.38;12.65;;;10.00;99.90;;;;;;5019762;28;20026;-69
2023/02/21 14:35:30;;;;;;;22.00;11.88;;;9.90;99.90;;;;;;5018639;28;20528;-69
2023/02/21 14:38:04;;;;;;;21.33;10.73;;;9.90;99.90;;;;;;5021931;28;20041;-69
2023/02/21 14:40:33;;;;;;;16.67;8.88;;;9.90;99.90;;;;;;5020426;28;20033;-71
2023/02/21 14:43:24;;;;;;;18.38;9.90;;;9.90;99.90;;;;;;5022310;28;20037;-70
2023/02/21 14:46:02;;;;;;;20.98;10.18;;;10.00;99.90;;;;;;5016061;28;20045;-70
2023/02/21 14:48:34;;;;;;;20.80;11.18;;;10.00;99.90;;;;;;5022553;28;20037;-69
2023/02/21 14:51:13;;;;;;;20.10;9.95;;;10.00;99.90;;;;;;5020046;28;20045;-69
2023/02/21 14:54:09;;;;;;;19.50;10.20;;;10.00;99.90;;;;;;5001222;28;20026;-70
2023/02/21 14:56:59;;;;;;;21.25;10.05;;;10.00;99.90;;;;;;5019822;28;20034;-69
2023/02/21 14:59:44;;;;;;;22.25;11.77;;;10.10;99.90;;;;;;5001360;28;20045;-70
2023/02/21 15:02:30;;;;;;;26.17;12.57;;;10.10;99.90;;;;;;5022104;28;20432;-71
2023/02/21 15:05:20;;;;;;;26.45;13.52;;;10.10;99.90;;;;;;5020714;28;20029;-72
2023/02/21 15:07:58;;;;;;;31.25;14.55;;;10.10;99.90;;;;;;5035273;28;20513;-72
2023/02/21 15:10:30;;;;;;;30.88;14.75;;;10.10;99.90;;;;;;4988035;28;20044;-73
2023/02/21 15:13:02;;;;;;;25.73;13.65;;;10.10;99.90;;;;;;5003693;28;20047;-72
2023/02/21 15:15:35;;;;;;;30.00;14.00;;;10.10;99.90;;;;;;5020488;28;20056;-75
2023/02/21 15:18:25;;;;;;;28.95;14.57;;;10.10;99.90;;;;;;5004551;28;20038;-75
2023/02/21 15:21:04;;;;;;;32.65;15.05;;;10.20;99.90;;;;;;4999149;28;20042;-72
2023/02/21 15:23:31;;;;;;;32.15;15.32;;;10.20;99.90;;;;;;5014027;28;20048;-73